sensor_id;sensor_type;location;lat;lon;timestamp;pressure;altitude;pressure_sealevel;temperature;humidity
3844;BME280;1937;51.444;6.484;2024-01-30T00:01:36;68807.47;;;7.51;96.23
3844;BME280;1937;51.444;6.484;2024-01-30T00:04:05;68858.59;;;7.66;96.22
3844;BME280;1937;51.444;6.484;2024-01-30T00:06:32;68802.56;;;7.55;96.49
3844;BME280;1937;51.444;6.484;2024-01-30T00:08:59;68861.25;;;7.51;95.77
3844;BME280;1937;51.444;6.484;2024-01-30T00:11:25;68852.59;;;7.48;95.94
3844;BME280;1937;51.444;6.484;2024-01-30T00:13:54;68890.78;;;7.43;97.39
3844;BME280;1937;51.444;6.484;2024-01-30T00:16:21;68926.69;;;7.50;96.66
3844;BME280;1937;51.444;6.484;2024-01-30T00:18:49;68898.88;;;7.46;96.93
3844;BME280;1937;51.444;6.484;2024-01-30T00:21:17;68888.13;;;7.30;96.77
3844;BME280;1937;51.444;6.484;2024-01-30T00:23:44;68947.41;;;7.54;96.88
3844;BME280;1937;51.444;6.484;2024-01-30T00:26:11;68954.56;;;7.60;96.07
3844;BME280;1937;51.444;6.484;2024-01-30T00:28:38;68924.72;;;7.50;95.88
3844;BME280;1937;51.444;6.484;2024-01-30T00:31:05;68862.41;;;7.45;96.24
3844;BME280;1937;51.444;6.484;2024-01-30T00:33:31;68899.59;;;7.37;96.22
3844;BME280;1937;51.444;6.484;2024-01-30T00:35:58;68942.25;;;7.48;96.55
3844;BME280;1937;51.444;6.484;2024-01-30T00:38:26;68876.19;;;7.42;95.29
3844;BME280;1937;51.444;6.484;2024-01-30T00:40:53;68839.91;;;7.39;95.22
3844;BME280;1937;51.444;6.484;2024-01-30T00:43:19;68912.59;;;7.35;96.22
3844;BME280;1937;51.444;6.484;2024-01-30T00:45:46;68932.63;;;7.26;96.97
3844;BME280;1937;51.444;6.484;2024-01-30T00:48:13;68977.81;;;7.36;96.78
3844;BME280;1937;51.444;6.484;2024-01-30T00:50:39;68936.59;;;7.32;96.76
3844;BME280;1937;51.444;6.484;2024-01-30T00:53:06;68986.09;;;7.37;95.84
3844;BME280;1937;51.444;6.484;2024-01-30T00:55:34;68934.41;;;7.28;96.43
3844;BME280;1937;51.444;6.484;2024-01-30T00:58:01;68953.25;;;7.18;97.05
3844;BME280;1937;51.444;6.484;2024-01-30T01:00:28;69032.31;;;7.28;96.66
3844;BME280;1937;51.444;6.484;2024-01-30T01:02:55;69016.59;;;7.32;97.43
3844;BME280;1937;51.444;6.484;2024-01-30T01:05:21;68971.69;;;7.12;97.39
3844;BME280;1937;51.444;6.484;2024-01-30T01:07:48;69066.75;;;7.23;97.88
3844;BME280;1937;51.444;6.484;2024-01-30T01:10:15;69144.25;;;7.30;97.80
3844;BME280;1937;51.444;6.484;2024-01-30T01:12:43;69132.78;;;7.44;97.57
3844;BME280;1937;51.444;6.484;2024-01-30T01:15:10;69075.16;;;7.36;97.27
3844;BME280;1937;51.444;6.484;2024-01-30T01:17:38;69042.50;;;7.22;97.51
3844;BME280;1937;51.444;6.484;2024-01-30T01:20:05;69102.41;;;7.25;98.26
3844;BME280;1937;51.444;6.484;2024-01-30T01:22:32;69146.81;;;7.30;98.09
3844;BME280;1937;51.444;6.484;2024-01-30T01:24:59;69157.84;;;7.28;97.43
3844;BME280;1937;51.444;6.484;2024-01-30T01:27:26;69138.63;;;7.36;97.80
3844;BME280;1937;51.444;6.484;2024-01-30T01:29:54;69134.34;;;7.41;97.38
3844;BME280;1937;51.444;6.484;2024-01-30T01:32:21;69086.19;;;7.35;97.13
3844;BME280;1937;51.444;6.484;2024-01-30T01:34:48;69132.97;;;7.27;96.99
3844;BME280;1937;51.444;6.484;2024-01-30T01:37:14;69125.81;;;7.36;96.82
3844;BME280;1937;51.444;6.484;2024-01-30T01:39:41;69144.31;;;7.36;96.58
3844;BME280;1937;51.444;6.484;2024-01-30T01:42:07;69107.00;;;7.31;96.20
3844;BME280;1937;51.444;6.484;2024-01-30T01:44:34;69107.34;;;7.42;96.56
3844;BME280;1937;51.444;6.484;2024-01-30T01:47:02;69100.50;;;7.47;96.71
3844;BME280;1937;51.444;6.484;2024-01-30T01:49:29;69096.06;;;7.39;95.95
3844;BME280;1937;51.444;6.484;2024-01-30T01:51:56;69151.16;;;7.47;96.20
3844;BME280;1937;51.444;6.484;2024-01-30T01:54:25;69149.34;;;7.45;96.15
3844;BME280;1937;51.444;6.484;2024-01-30T01:56:53;69173.25;;;7.65;95.93
3844;BME280;1937;51.444;6.484;2024-01-30T01:59:20;69186.97;;;7.62;94.78
3844;BME280;1937;51.444;6.484;2024-01-30T02:01:47;69002.41;;;7.55;95.02
3844;BME280;1937;51.444;6.484;2024-01-30T02:04:16;69067.06;;;7.56;95.49
3844;BME280;1937;51.444;6.484;2024-01-30T02:06:43;68979.19;;;7.35;94.95
3844;BME280;1937;51.444;6.484;2024-01-30T02:09:10;69062.94;;;7.37;95.28
3844;BME280;1937;51.444;6.484;2024-01-30T02:11:36;69079.38;;;7.25;96.70
3844;BME280;1937;51.444;6.484;2024-01-30T02:14:03;69114.97;;;7.35;97.15
3844;BME280;1937;51.444;6.484;2024-01-30T02:16:30;69088.28;;;7.11;95.78
3844;BME280;1937;51.444;6.484;2024-01-30T02:18:57;69033.09;;;7.27;96.67
3844;BME280;1937;51.444;6.484;2024-01-30T02:21:25;69127.25;;;7.26;96.78
3844;BME280;1937;51.444;6.484;2024-01-30T02:23:52;69094.22;;;7.31;96.32
3844;BME280;1937;51.444;6.484;2024-01-30T02:26:21;69131.63;;;7.28;96.91
3844;BME280;1937;51.444;6.484;2024-01-30T02:28:47;69110.09;;;7.25;96.81
3844;BME280;1937;51.444;6.484;2024-01-30T02:31:15;69093.72;;;7.22;96.93
3844;BME280;1937;51.444;6.484;2024-01-30T02:33:42;69215.97;;;7.15;96.88
3844;BME280;1937;51.444;6.484;2024-01-30T02:36:08;69168.16;;;7.20;97.40
3844;BME280;1937;51.444;6.484;2024-01-30T02:38:36;69121.91;;;7.22;96.33
3844;BME280;1937;51.444;6.484;2024-01-30T02:41:03;69129.41;;;7.24;96.51
3844;BME280;1937;51.444;6.484;2024-01-30T02:43:30;69123.50;;;7.40;95.63
3844;BME280;1937;51.444;6.484;2024-01-30T02:45:56;69096.88;;;7.22;96.58
3844;BME280;1937;51.444;6.484;2024-01-30T02:48:23;69154.25;;;7.25;96.21
3844;BME280;1937;51.444;6.484;2024-01-30T02:50:50;69152.53;;;7.30;96.47
3844;BME280;1937;51.444;6.484;2024-01-30T02:53:16;69128.13;;;7.16;96.57
3844;BME280;1937;51.444;6.484;2024-01-30T02:55:44;69129.47;;;7.30;96.29
3844;BME280;1937;51.444;6.484;2024-01-30T02:58:11;69071.75;;;7.31;96.19
3844;BME280;1937;51.444;6.484;2024-01-30T03:00:37;69069.72;;;7.25;95.61
3844;BME280;1937;51.444;6.484;2024-01-30T03:03:04;69060.72;;;7.11;96.39
3844;BME280;1937;51.444;6.484;2024-01-30T03:05:31;69049.19;;;6.82;96.94
3844;BME280;1937;51.444;6.484;2024-01-30T03:07:57;69150.94;;;7.12;97.22
3844;BME280;1937;51.444;6.484;2024-01-30T03:10:24;69126.69;;;7.11;97.39
3844;BME280;1937;51.444;6.484;2024-01-30T03:12:52;69133.63;;;7.12;95.99
3844;BME280;1937;51.444;6.484;2024-01-30T03:15:19;69098.69;;;7.09;96.11
3844;BME280;1937;51.444;6.484;2024-01-30T03:17:45;69174.31;;;7.23;96.39
3844;BME280;1937;51.444;6.484;2024-01-30T03:20:12;69117.38;;;7.22;96.37
3844;BME280;1937;51.444;6.484;2024-01-30T03:22:38;69287.41;;;7.10;95.87
3844;BME280;1937;51.444;6.484;2024-01-30T03:25:06;69130.25;;;7.14;97.08
3844;BME280;1937;51.444;6.484;2024-01-30T03:27:32;69117.22;;;7.09;96.59
3844;BME280;1937;51.444;6.484;2024-01-30T03:30:00;69138.91;;;7.10;96.36
3844;BME280;1937;51.444;6.484;2024-01-30T03:32:27;69095.66;;;6.99;96.64
3844;BME280;1937;51.444;6.484;2024-01-30T03:34:54;69146.84;;;6.84;96.66
3844;BME280;1937;51.444;6.484;2024-01-30T03:37:20;69142.22;;;7.09;96.22
3844;BME280;1937;51.444;6.484;2024-01-30T03:39:47;69129.09;;;6.97;96.26
3844;BME280;1937;51.444;6.484;2024-01-30T03:42:13;69105.97;;;6.91;96.70
3844;BME280;1937;51.444;6.484;2024-01-30T03:44:40;69090.81;;;6.89;97.38
3844;BME280;1937;51.444;6.484;2024-01-30T03:47:08;69181.31;;;6.85;97.37
3844;BME280;1937;51.444;6.484;2024-01-30T03:49:34;69208.38;;;6.91;97.18
3844;BME280;1937;51.444;6.484;2024-01-30T03:52:01;69173.47;;;6.87;97.65
3844;BME280;1937;51.444;6.484;2024-01-30T03:54:28;69148.88;;;6.90;97.41
3844;BME280;1937;51.444;6.484;2024-01-30T03:56:54;69139.09;;;6.78;97.42
3844;BME280;1937;51.444;6.484;2024-01-30T03:59:21;69224.84;;;6.85;96.73
3844;BME280;1937;51.444;6.484;2024-01-30T04:01:49;69130.72;;;6.86;97.38
3844;BME280;1937;51.444;6.484;2024-01-30T04:04:17;69218.00;;;6.90;97.60
3844;BME280;1937;51.444;6.484;2024-01-30T04:06:44;69224.03;;;6.72;97.31
3844;BME280;1937;51.444;6.484;2024-01-30T04:09:11;69202.22;;;7.03;97.34
3844;BME280;1937;51.444;6.484;2024-01-30T04:11:38;69124.25;;;6.87;96.77
3844;BME280;1937;51.444;6.484;2024-01-30T04:14:05;69139.69;;;6.93;96.08
3844;BME280;1937;51.444;6.484;2024-01-30T04:16:31;69120.50;;;6.86;96.65
3844;BME280;1937;51.444;6.484;2024-01-30T04:18:58;69219.38;;;6.74;98.15
3844;BME280;1937;51.444;6.484;2024-01-30T04:21:26;69173.03;;;6.85;97.28
3844;BME280;1937;51.444;6.484;2024-01-30T04:23:53;69228.59;;;6.86;97.97
3844;BME280;1937;51.444;6.484;2024-01-30T04:26:19;69237.47;;;6.87;98.12
3844;BME280;1937;51.444;6.484;2024-01-30T04:28:46;69160.16;;;6.78;98.03
3844;BME280;1937;51.444;6.484;2024-01-30T04:31:12;69212.03;;;6.70;98.02
3844;BME280;1937;51.444;6.484;2024-01-30T04:33:39;69280.63;;;6.76;98.25
3844;BME280;1937;51.444;6.484;2024-01-30T04:36:08;69242.34;;;6.83;97.60
3844;BME280;1937;51.444;6.484;2024-01-30T04:38:37;69278.19;;;6.98;97.45
3844;BME280;1937;51.444;6.484;2024-01-30T04:41:03;69147.03;;;6.82;96.82
3844;BME280;1937;51.444;6.484;2024-01-30T04:43:30;69243.00;;;6.90;97.77
3844;BME280;1937;51.444;6.484;2024-01-30T04:45:57;69376.19;;;6.81;97.64
3844;BME280;1937;51.444;6.484;2024-01-30T04:48:23;69314.03;;;6.98;97.21
3844;BME280;1937;51.444;6.484;2024-01-30T04:50:50;69253.69;;;7.08;96.97
3844;BME280;1937;51.444;6.484;2024-01-30T04:53:17;69221.78;;;7.07;96.06
3844;BME280;1937;51.444;6.484;2024-01-30T04:55:45;69215.19;;;7.01;96.39
3844;BME280;1937;51.444;6.484;2024-01-30T04:58:12;69221.25;;;6.97;96.79
3844;BME280;1937;51.444;6.484;2024-01-30T05:00:39;69439.59;;;7.05;96.29
3844;BME280;1937;51.444;6.484;2024-01-30T05:03:06;69105.13;;;6.86;96.26
3844;BME280;1937;51.444;6.484;2024-01-30T05:05:33;69206.84;;;7.09;96.63
3844;BME280;1937;51.444;6.484;2024-01-30T05:07:59;69189.00;;;6.85;96.57
3844;BME280;1937;51.444;6.484;2024-01-30T05:10:26;69339.38;;;6.93;96.86
3844;BME280;1937;51.444;6.484;2024-01-30T05:12:55;69344.94;;;7.11;95.77
3844;BME280;1937;51.444;6.484;2024-01-30T05:15:22;69177.38;;;7.02;96.15
3844;BME280;1937;51.444;6.484;2024-01-30T05:17:48;69204.88;;;6.94;96.76
3844;BME280;1937;51.444;6.484;2024-01-30T05:20:16;69199.66;;;6.73;97.37
3844;BME280;1937;51.444;6.484;2024-01-30T05:22:42;69289.03;;;6.98;96.98
3844;BME280;1937;51.444;6.484;2024-01-30T05:25:10;69254.38;;;6.99;97.25
3844;BME280;1937;51.444;6.484;2024-01-30T05:27:37;69186.44;;;6.85;97.37
3844;BME280;1937;51.444;6.484;2024-01-30T05:30:09;69213.22;;;6.86;97.01
3844;BME280;1937;51.444;6.484;2024-01-30T05:32:36;69234.72;;;6.89;97.14
3844;BME280;1937;51.444;6.484;2024-01-30T05:35:03;69285.47;;;7.11;96.12
3844;BME280;1937;51.444;6.484;2024-01-30T05:37:30;69192.25;;;6.92;96.79
3844;BME280;1937;51.444;6.484;2024-01-30T05:39:57;69283.97;;;6.90;97.30
3844;BME280;1937;51.444;6.484;2024-01-30T05:42:24;69321.22;;;7.04;96.92
3844;BME280;1937;51.444;6.484;2024-01-30T05:44:51;69300.88;;;7.02;97.13
3844;BME280;1937;51.444;6.484;2024-01-30T05:47:19;69256.00;;;7.03;97.00
3844;BME280;1937;51.444;6.484;2024-01-30T05:49:45;69324.22;;;7.07;97.15
3844;BME280;1937;51.444;6.484;2024-01-30T05:52:12;69230.81;;;7.06;96.96
3844;BME280;1937;51.444;6.484;2024-01-30T05:54:40;69300.31;;;7.17;96.24
3844;BME280;1937;51.444;6.484;2024-01-30T05:57:07;69249.72;;;6.78;97.15
3844;BME280;1937;51.444;6.484;2024-01-30T05:59:33;69400.84;;;6.85;97.05
3844;BME280;1937;51.444;6.484;2024-01-30T06:02:01;69361.53;;;7.12;97.23
3844;BME280;1937;51.444;6.484;2024-01-30T06:04:29;69318.34;;;7.23;95.81
3844;BME280;1937;51.444;6.484;2024-01-30T06:06:56;69355.94;;;7.10;95.77
3844;BME280;1937;51.444;6.484;2024-01-30T06:09:22;69271.19;;;7.20;95.71
3844;BME280;1937;51.444;6.484;2024-01-30T06:11:49;69263.44;;;7.29;95.82
3844;BME280;1937;51.444;6.484;2024-01-30T06:14:16;69348.19;;;7.42;96.12
3844;BME280;1937;51.444;6.484;2024-01-30T06:16:43;69296.06;;;7.37;95.79
3844;BME280;1937;51.444;6.484;2024-01-30T06:19:10;69251.16;;;7.38;95.05
3844;BME280;1937;51.444;6.484;2024-01-30T06:21:38;69247.56;;;7.35;95.85
3844;BME280;1937;51.444;6.484;2024-01-30T06:24:06;69270.44;;;7.37;95.31
3844;BME280;1937;51.444;6.484;2024-01-30T06:26:33;69257.63;;;7.22;96.60
3844;BME280;1937;51.444;6.484;2024-01-30T06:29:04;69309.31;;;7.39;95.85
3844;BME280;1937;51.444;6.484;2024-01-30T06:31:30;69243.72;;;7.43;94.71
3844;BME280;1937;51.444;6.484;2024-01-30T06:33:57;69209.56;;;7.37;94.73
3844;BME280;1937;51.444;6.484;2024-01-30T06:36:26;69182.84;;;7.28;95.17
3844;BME280;1937;51.444;6.484;2024-01-30T06:38:54;69184.63;;;7.14;96.49
3844;BME280;1937;51.444;6.484;2024-01-30T06:41:20;69214.09;;;7.07;96.10
3844;BME280;1937;51.444;6.484;2024-01-30T06:43:47;69401.22;;;7.20;96.46
3844;BME280;1937;51.444;6.484;2024-01-30T06:46:14;69253.78;;;7.14;97.10
3844;BME280;1937;51.444;6.484;2024-01-30T06:48:40;69312.94;;;7.19;96.52
3844;BME280;1937;51.444;6.484;2024-01-30T06:51:10;69297.00;;;7.18;96.79
3844;BME280;1937;51.444;6.484;2024-01-30T06:53:37;69339.66;;;7.13;97.53
3844;BME280;1937;51.444;6.484;2024-01-30T06:56:06;69377.41;;;7.21;97.35
3844;BME280;1937;51.444;6.484;2024-01-30T06:58:33;69395.84;;;6.91;96.92
3844;BME280;1937;51.444;6.484;2024-01-30T07:00:59;69339.94;;;7.18;97.41
3844;BME280;1937;51.444;6.484;2024-01-30T07:03:27;69440.09;;;7.22;96.87
3844;BME280;1937;51.444;6.484;2024-01-30T07:05:53;69388.91;;;7.14;96.41
3844;BME280;1937;51.444;6.484;2024-01-30T07:08:20;69350.44;;;7.22;96.69
3844;BME280;1937;51.444;6.484;2024-01-30T07:10:47;69354.31;;;7.30;96.14
3844;BME280;1937;51.444;6.484;2024-01-30T07:13:15;69370.69;;;7.33;96.33
3844;BME280;1937;51.444;6.484;2024-01-30T07:15:42;69397.78;;;7.38;96.70
3844;BME280;1937;51.444;6.484;2024-01-30T07:18:09;69375.50;;;7.52;95.56
3844;BME280;1937;51.444;6.484;2024-01-30T07:20:36;69349.88;;;7.52;95.59
3844;BME280;1937;51.444;6.484;2024-01-30T07:23:03;69348.09;;;7.66;94.67
3844;BME280;1937;51.444;6.484;2024-01-30T07:25:30;69335.22;;;7.74;94.32
3844;BME280;1937;51.444;6.484;2024-01-30T07:27:57;69293.00;;;7.73;94.50
3844;BME280;1937;51.444;6.484;2024-01-30T07:30:25;69260.78;;;7.68;94.21
3844;BME280;1937;51.444;6.484;2024-01-30T07:32:51;69314.19;;;7.65;95.11
3844;BME280;1937;51.444;6.484;2024-01-30T07:35:18;69296.78;;;7.59;95.89
3844;BME280;1937;51.444;6.484;2024-01-30T07:37:45;69336.91;;;7.69;95.31
3844;BME280;1937;51.444;6.484;2024-01-30T07:40:12;69249.09;;;7.47;95.14
3844;BME280;1937;51.444;6.484;2024-01-30T07:42:39;69321.69;;;7.67;94.51
3844;BME280;1937;51.444;6.484;2024-01-30T07:45:06;69265.81;;;7.61;94.89
3844;BME280;1937;51.444;6.484;2024-01-30T07:47:34;69337.84;;;7.66;95.07
3844;BME280;1937;51.444;6.484;2024-01-30T07:50:01;69346.81;;;7.73;95.01
3844;BME280;1937;51.444;6.484;2024-01-30T07:52:28;69371.50;;;7.62;95.44
3844;BME280;1937;51.444;6.484;2024-01-30T07:54:55;69377.31;;;7.69;95.20
3844;BME280;1937;51.444;6.484;2024-01-30T07:57:22;69362.75;;;7.82;94.83
3844;BME280;1937;51.444;6.484;2024-01-30T07:59:48;69404.38;;;7.98;94.16
3844;BME280;1937;51.444;6.484;2024-01-30T08:02:15;69329.66;;;8.02;93.52
3844;BME280;1937;51.444;6.484;2024-01-30T08:04:43;69297.09;;;7.86;93.42
3844;BME280;1937;51.444;6.484;2024-01-30T08:07:13;69321.69;;;7.98;93.49
3844;BME280;1937;51.444;6.484;2024-01-30T08:09:40;69334.69;;;8.11;94.04
3844;BME280;1937;51.444;6.484;2024-01-30T08:12:07;69425.38;;;8.07;93.24
3844;BME280;1937;51.444;6.484;2024-01-30T08:14:34;69336.97;;;8.52;92.14
3844;BME280;1937;51.444;6.484;2024-01-30T08:17:00;69288.28;;;8.58;91.63
3844;BME280;1937;51.444;6.484;2024-01-30T08:19:27;69108.41;;;8.32;91.28
3844;BME280;1937;51.444;6.484;2024-01-30T08:21:55;69238.78;;;8.45;91.63
3844;BME280;1937;51.444;6.484;2024-01-30T08:24:22;69229.06;;;8.60;90.88
3844;BME280;1937;51.444;6.484;2024-01-30T08:26:49;69157.38;;;8.37;91.56
3844;BME280;1937;51.444;6.484;2024-01-30T08:29:15;69171.75;;;8.55;91.22
3844;BME280;1937;51.444;6.484;2024-01-30T08:31:42;69230.38;;;8.75;90.10
3844;BME280;1937;51.444;6.484;2024-01-30T08:34:09;69129.50;;;8.54;90.87
3844;BME280;1937;51.444;6.484;2024-01-30T08:36:36;69112.16;;;8.33;91.38
3844;BME280;1937;51.444;6.484;2024-01-30T08:39:04;69163.34;;;8.42;92.05
3844;BME280;1937;51.444;6.484;2024-01-30T08:41:31;69168.53;;;8.48;91.49
3844;BME280;1937;51.444;6.484;2024-01-30T08:43:58;69114.59;;;8.42;91.10
3844;BME280;1937;51.444;6.484;2024-01-30T08:46:24;69188.94;;;8.57;91.30
3844;BME280;1937;51.444;6.484;2024-01-30T08:48:51;69223.69;;;8.78;91.00
3844;BME280;1937;51.444;6.484;2024-01-30T08:51:18;69198.31;;;8.89;90.10
3844;BME280;1937;51.444;6.484;2024-01-30T08:53:45;69178.66;;;9.00;89.36
3844;BME280;1937;51.444;6.484;2024-01-30T08:56:13;69068.03;;;8.74;90.24
3844;BME280;1937;51.444;6.484;2024-01-30T08:58:41;69170.47;;;8.91;90.00
3844;BME280;1937;51.444;6.484;2024-01-30T09:01:08;69113.56;;;8.89;89.11
3844;BME280;1937;51.444;6.484;2024-01-30T09:03:35;68991.88;;;8.86;89.66
3844;BME280;1937;51.444;6.484;2024-01-30T09:06:08;69079.72;;;8.80;89.60
3844;BME280;1937;51.444;6.484;2024-01-30T09:08:34;69119.66;;;8.85;89.92
3844;BME280;1937;51.444;6.484;2024-01-30T09:11:01;69220.63;;;9.12;89.81
3844;BME280;1937;51.444;6.484;2024-01-30T09:13:31;69137.78;;;9.05;89.93
3844;BME280;1937;51.444;6.484;2024-01-30T09:15:58;69124.34;;;8.76;90.42
3844;BME280;1937;51.444;6.484;2024-01-30T09:18:25;69196.03;;;9.00;89.68
3844;BME280;1937;51.444;6.484;2024-01-30T09:20:51;69169.28;;;9.19;89.39
3844;BME280;1937;51.444;6.484;2024-01-30T09:23:18;69117.16;;;9.27;88.93
3844;BME280;1937;51.444;6.484;2024-01-30T09:25:45;69253.16;;;9.29;88.32
3844;BME280;1937;51.444;6.484;2024-01-30T09:28:11;69177.50;;;9.34;89.12
3844;BME280;1937;51.444;6.484;2024-01-30T09:30:40;69258.09;;;9.53;89.28
3844;BME280;1937;51.444;6.484;2024-01-30T09:33:07;69039.31;;;8.93;89.80
3844;BME280;1937;51.444;6.484;2024-01-30T09:35:33;69097.34;;;9.54;88.94
3844;BME280;1937;51.444;6.484;2024-01-30T09:38:00;69133.63;;;9.36;88.22
3844;BME280;1937;51.444;6.484;2024-01-30T09:40:27;69156.13;;;9.64;88.24
3844;BME280;1937;51.444;6.484;2024-01-30T09:49:43;69195.63;;;9.96;87.71
3844;BME280;1937;51.444;6.484;2024-01-30T09:52:10;69184.13;;;10.23;86.04
3844;BME280;1937;51.444;6.484;2024-01-30T09:54:38;69173.88;;;10.36;85.74
3844;BME280;1937;51.444;6.484;2024-01-30T09:57:05;69063.31;;;10.14;85.90
3844;BME280;1937;51.444;6.484;2024-01-30T09:59:32;69071.41;;;10.04;86.53
3844;BME280;1937;51.444;6.484;2024-01-30T10:01:59;69115.50;;;9.93;87.25
3844;BME280;1937;51.444;6.484;2024-01-30T10:04:26;69086.78;;;9.91;88.01
3844;BME280;1937;51.444;6.484;2024-01-30T10:06:57;69129.03;;;10.07;87.59
3844;BME280;1937;51.444;6.484;2024-01-30T10:09:26;69100.31;;;10.04;87.40
3844;BME280;1937;51.444;6.484;2024-01-30T10:11:53;69250.19;;;10.53;86.35
3844;BME280;1937;51.444;6.484;2024-01-30T10:14:20;69232.59;;;10.62;85.11
3844;BME280;1937;51.444;6.484;2024-01-30T10:16:47;69088.56;;;10.40;85.13
3844;BME280;1937;51.444;6.484;2024-01-30T10:19:13;69200.41;;;10.96;83.67
3844;BME280;1937;51.444;6.484;2024-01-30T10:21:40;69151.06;;;10.87;83.20
3844;BME280;1937;51.444;6.484;2024-01-30T10:24:10;69097.56;;;11.20;82.57
3844;BME280;1937;51.444;6.484;2024-01-30T10:26:38;69152.88;;;11.21;82.31
3844;BME280;1937;51.444;6.484;2024-01-30T10:29:05;69081.69;;;11.44;80.61
3844;BME280;1937;51.444;6.484;2024-01-30T10:31:32;68970.31;;;11.04;82.67
3844;BME280;1937;51.444;6.484;2024-01-30T10:33:58;68959.56;;;11.15;82.35
3844;BME280;1937;51.444;6.484;2024-01-30T10:36:29;69036.09;;;11.23;82.25
3844;BME280;1937;51.444;6.484;2024-01-30T10:38:59;68902.94;;;10.88;82.87
3844;BME280;1937;51.444;6.484;2024-01-30T10:41:27;69004.22;;;10.80;83.62
3844;BME280;1937;51.444;6.484;2024-01-30T10:44:02;69063.28;;;10.95;83.87
3844;BME280;1937;51.444;6.484;2024-01-30T10:46:31;69041.66;;;11.05;82.91
3844;BME280;1937;51.444;6.484;2024-01-30T10:48:59;69033.53;;;11.23;82.07
3844;BME280;1937;51.444;6.484;2024-01-30T10:51:27;68925.94;;;10.84;82.95
3844;BME280;1937;51.444;6.484;2024-01-30T10:53:55;68904.09;;;10.96;83.10
3844;BME280;1937;51.444;6.484;2024-01-30T10:56:23;68990.91;;;11.04;83.61
3844;BME280;1937;51.444;6.484;2024-01-30T10:58:52;68988.75;;;11.06;83.66
3844;BME280;1937;51.444;6.484;2024-01-30T11:01:19;68994.28;;;11.02;84.17
3844;BME280;1937;51.444;6.484;2024-01-30T11:03:48;69073.97;;;11.24;83.02
3844;BME280;1937;51.444;6.484;2024-01-30T11:06:16;69125.34;;;11.59;83.17
3844;BME280;1937;51.444;6.484;2024-01-30T11:08:43;69061.06;;;11.44;82.79
3844;BME280;1937;51.444;6.484;2024-01-30T11:11:10;69025.78;;;11.42;82.12
3844;BME280;1937;51.444;6.484;2024-01-30T11:13:37;69086.25;;;11.57;82.89
3844;BME280;1937;51.444;6.484;2024-01-30T11:16:06;69047.56;;;11.57;82.42
3844;BME280;1937;51.444;6.484;2024-01-30T11:18:35;69001.22;;;11.24;83.44
3844;BME280;1937;51.444;6.484;2024-01-30T11:21:04;69067.00;;;11.49;83.16
3844;BME280;1937;51.444;6.484;2024-01-30T11:23:33;68987.72;;;11.10;83.79
3844;BME280;1937;51.444;6.484;2024-01-30T11:26:00;69060.69;;;11.41;83.41
3844;BME280;1937;51.444;6.484;2024-01-30T11:28:32;69060.28;;;11.39;83.44
3844;BME280;1937;51.444;6.484;2024-01-30T11:31:03;69056.72;;;11.03;85.25
3844;BME280;1937;51.444;6.484;2024-01-30T11:33:31;69041.84;;;11.17;84.54
3844;BME280;1937;51.444;6.484;2024-01-30T11:36:00;69050.38;;;11.22;85.13
3844;BME280;1937;51.444;6.484;2024-01-30T11:38:28;69090.03;;;11.38;83.93
3844;BME280;1937;51.444;6.484;2024-01-30T11:40:55;69065.25;;;11.08;85.88
3844;BME280;1937;51.444;6.484;2024-01-30T11:43:25;69174.34;;;11.53;84.71
3844;BME280;1937;51.444;6.484;2024-01-30T11:45:52;69121.56;;;11.52;83.43
3844;BME280;1937;51.444;6.484;2024-01-30T11:48:19;69173.16;;;11.52;84.53
3844;BME280;1937;51.444;6.484;2024-01-30T11:50:47;69090.63;;;11.52;84.40
3844;BME280;1937;51.444;6.484;2024-01-30T11:53:14;69079.31;;;11.42;85.64
3844;BME280;1937;51.444;6.484;2024-01-30T11:55:40;69211.44;;;11.62;84.86
3844;BME280;1937;51.444;6.484;2024-01-30T11:58:08;69211.28;;;11.77;84.32
3844;BME280;1937;51.444;6.484;2024-01-30T12:00:35;69183.66;;;11.69;83.63
3844;BME280;1937;51.444;6.484;2024-01-30T12:03:02;69229.34;;;11.77;84.35
3844;BME280;1937;51.444;6.484;2024-01-30T12:05:30;69261.69;;;11.76;85.30
3844;BME280;1937;51.444;6.484;2024-01-30T12:07:58;69296.66;;;11.88;84.99
3844;BME280;1937;51.444;6.484;2024-01-30T12:10:25;69331.97;;;11.97;84.96
3844;BME280;1937;51.444;6.484;2024-01-30T12:12:53;69275.59;;;11.93;84.20
3844;BME280;1937;51.444;6.484;2024-01-30T12:15:21;69271.66;;;12.13;84.37
3844;BME280;1937;51.444;6.484;2024-01-30T12:17:48;69315.34;;;12.22;84.04
3844;BME280;1937;51.444;6.484;2024-01-30T12:20:17;69358.25;;;12.25;83.82
3844;BME280;1937;51.444;6.484;2024-01-30T12:22:45;69459.56;;;12.26;83.61
3844;BME280;1937;51.444;6.484;2024-01-30T12:25:16;69376.34;;;12.39;83.89
3844;BME280;1937;51.444;6.484;2024-01-30T12:27:45;69348.94;;;12.28;83.94
3844;BME280;1937;51.444;6.484;2024-01-30T12:30:15;69364.84;;;12.51;83.46
3844;BME280;1937;51.444;6.484;2024-01-30T12:32:44;69413.13;;;12.52;83.65
3844;BME280;1937;51.444;6.484;2024-01-30T12:35:11;69421.50;;;12.72;82.89
3844;BME280;1937;51.444;6.484;2024-01-30T12:37:38;69403.03;;;12.70;83.16
3844;BME280;1937;51.444;6.484;2024-01-30T12:40:05;69275.81;;;12.56;82.82
3844;BME280;1937;51.444;6.484;2024-01-30T12:42:34;69491.09;;;12.75;82.90
3844;BME280;1937;51.444;6.484;2024-01-30T12:45:02;69433.25;;;12.91;82.01
3844;BME280;1937;51.444;6.484;2024-01-30T12:47:29;69405.22;;;12.81;82.43
3844;BME280;1937;51.444;6.484;2024-01-30T12:49:56;69469.88;;;13.07;82.07
3844;BME280;1937;51.444;6.484;2024-01-30T12:52:23;69389.53;;;12.96;81.14
3844;BME280;1937;51.444;6.484;2024-01-30T12:54:51;69353.75;;;13.25;80.16
3844;BME280;1937;51.444;6.484;2024-01-30T12:57:18;69415.59;;;13.20;80.39
3844;BME280;1937;51.444;6.484;2024-01-30T12:59:47;69411.03;;;13.27;80.42
3844;BME280;1937;51.444;6.484;2024-01-30T13:02:15;69374.00;;;13.35;79.42
3844;BME280;1937;51.444;6.484;2024-01-30T13:04:42;69381.19;;;13.41;79.63
3844;BME280;1937;51.444;6.484;2024-01-30T13:07:09;69315.31;;;13.27;80.13
3844;BME280;1937;51.444;6.484;2024-01-30T13:09:39;69236.97;;;13.09;80.07
3844;BME280;1937;51.444;6.484;2024-01-30T13:12:06;69304.00;;;13.04;79.95
3844;BME280;1937;51.444;6.484;2024-01-30T13:14:33;69140.78;;;12.95;80.28
3844;BME280;1937;51.444;6.484;2024-01-30T13:17:01;69263.63;;;13.07;79.94
3844;BME280;1937;51.444;6.484;2024-01-30T13:19:29;69277.97;;;13.13;79.94
3844;BME280;1937;51.444;6.484;2024-01-30T13:21:56;69205.56;;;13.00;79.93
3844;BME280;1937;51.444;6.484;2024-01-30T13:24:22;69143.25;;;12.71;81.16
3844;BME280;1937;51.444;6.484;2024-01-30T13:26:49;69143.22;;;12.78;81.13
3844;BME280;1937;51.444;6.484;2024-01-30T13:29:16;69206.19;;;12.94;80.16
3844;BME280;1937;51.444;6.484;2024-01-30T13:31:43;69125.28;;;12.89;79.77
3844;BME280;1937;51.444;6.484;2024-01-30T13:34:13;69112.81;;;12.71;80.22
3844;BME280;1937;51.444;6.484;2024-01-30T13:36:40;69127.66;;;12.91;79.86